createdAt,value
2018-04-12T00:00:06.899Z,79.90
2018-04-12T00:02:38.070Z,79.90
2018-04-12T00:05:09.070Z,79.00
2018-04-12T00:07:40.150Z,79.30
2018-04-12T00:10:11.187Z,79.80
2018-04-12T00:12:41.529Z,80.80
2018-04-12T00:15:12.509Z,82.60
2018-04-12T00:17:42.791Z,82.60
2018-04-12T00:20:13.023Z,83.10
2018-04-12T00:22:44.104Z,82.90
2018-04-12T00:25:14.389Z,82.90
2018-04-12T00:27:44.757Z,82.20
2018-04-12T00:30:15.717Z,84.00
2018-04-12T00:32:46.674Z,83.10
2018-04-12T00:35:17.632Z,81.40
2018-04-12T00:37:47.897Z,81.40
2018-04-12T00:40:18.847Z,82.20
2018-04-12T00:42:49.935Z,82.40
2018-04-12T00:45:20.917Z,83.50
2018-04-12T00:47:51.994Z,84.70
2018-04-12T00:50:22.155Z,84.70
2018-04-12T00:52:53.175Z,86.90
2018-04-12T00:55:23.381Z,86.80
2018-04-12T00:57:54.340Z,86.90
2018-04-12T01:00:24.441Z,86.80
2018-04-12T01:02:54.643Z,86.10
2018-04-12T01:05:25.621Z,86.10
2018-04-12T01:07:56.633Z,86.00
2018-04-12T01:10:26.801Z,86.00
2018-04-12T01:12:57.744Z,84.60
2018-04-12T01:15:28.780Z,84.30
2018-04-12T01:17:59.709Z,84.40
2018-04-12T01:20:29.929Z,84.30
2018-04-12T01:23:00.065Z,84.30
2018-04-12T01:25:30.172Z,85.10
2018-04-12T01:28:01.490Z,87.40
2018-04-12T01:30:32.454Z,86.50
2018-04-12T01:33:17.534Z,86.40
2018-04-12T01:35:48.487Z,86.30
2018-04-12T01:38:18.692Z,86.30
2018-04-12T01:40:48.802Z,86.10
2018-04-12T01:43:18.910Z,87.80
2018-04-12T01:45:49.095Z,88.70
2018-04-12T01:48:20.086Z,88.30
2018-04-12T01:50:50.213Z,88.20
2018-04-12T01:53:20.287Z,88.20
2018-04-12T01:55:51.169Z,88.70
2018-04-12T01:58:22.380Z,86.70
2018-04-12T02:00:53.318Z,87.40
2018-04-12T02:03:24.266Z,88.40
2018-04-12T02:05:54.349Z,88.40
2018-04-12T02:08:25.254Z,87.70
2018-04-12T02:10:55.517Z,87.70
2018-04-12T02:13:26.601Z,87.50
2018-04-12T02:15:56.763Z,87.50
2018-04-12T02:18:27.751Z,88.20
2018-04-12T02:20:57.865Z,88.10
2018-04-12T02:23:28.003Z,89.10
2018-04-12T02:25:59.062Z,89.70
2018-04-12T02:28:29.226Z,89.70
2018-04-12T02:30:59.349Z,89.20
2018-04-12T02:33:30.259Z,88.30
2018-04-12T02:36:01.263Z,88.40
2018-04-12T02:38:32.285Z,88.40
2018-04-12T02:41:02.530Z,88.40
2018-04-12T02:43:33.573Z,89.50
2018-04-12T02:46:03.901Z,89.50
2018-04-12T02:48:34.049Z,86.50
2018-04-12T02:51:05.049Z,83.30
2018-04-12T02:53:36.047Z,83.60
2018-04-12T02:56:06.294Z,83.60
2018-04-12T02:58:37.361Z,82.50
2018-04-12T03:01:07.606Z,82.40
2018-04-12T03:03:38.671Z,86.30
2018-04-12T03:06:09.701Z,83.80
2018-04-12T03:08:39.883Z,83.70
2018-04-12T03:11:09.959Z,77.50
2018-04-12T03:13:40.082Z,74.10
2018-04-12T03:16:10.200Z,73.80
2018-04-12T03:18:40.351Z,73.40
2018-04-12T03:21:11.390Z,73.80
2018-04-12T03:23:41.609Z,73.90
2018-04-12T03:26:12.631Z,73.60
2018-04-12T03:28:43.610Z,74.70
2018-04-12T03:31:14.653Z,74.10
2018-04-12T03:33:45.570Z,75.20
2018-04-12T03:36:15.664Z,75.20
2018-04-12T03:38:45.853Z,76.10
2018-04-12T03:41:15.926Z,75.00
2018-04-12T03:43:46.906Z,76.40
2018-04-12T03:46:17.905Z,77.30
2018-04-12T03:48:48.791Z,78.90
2018-04-12T03:51:19.677Z,79.10
2018-04-12T03:53:49.849Z,79.00
2018-04-12T03:56:19.964Z,78.60
2018-04-12T03:58:50.147Z,78.20
2018-04-12T04:01:21.058Z,79.00
2018-04-12T04:03:51.171Z,78.90
2018-04-12T04:06:22.086Z,81.50
2018-04-12T04:08:53.156Z,84.30
2018-04-12T04:11:23.280Z,84.30
2018-04-12T04:13:53.556Z,84.30
2018-04-12T04:16:41.526Z,83.60
2018-04-12T04:19:30.280Z,85.10
2018-04-12T04:22:01.206Z,85.50
2018-04-12T04:24:32.237Z,86.20
2018-04-12T04:27:03.302Z,85.70
2018-04-12T04:29:34.353Z,84.30
2018-04-12T04:32:05.430Z,84.30
2018-04-12T04:34:35.758Z,84.30
2018-04-12T04:37:06.929Z,84.10
2018-04-12T04:39:38.113Z,83.80
2018-04-12T04:42:08.250Z,83.80
2018-04-12T04:44:38.439Z,84.90
2018-04-12T04:47:09.409Z,86.50
2018-04-12T04:49:39.523Z,86.40
2018-04-12T04:52:09.591Z,87.30
2018-04-12T04:54:40.624Z,87.10
2018-04-12T04:57:11.025Z,86.90
2018-04-12T04:59:41.417Z,86.70
2018-04-12T05:02:11.797Z,86.90
2018-04-12T05:04:41.909Z,87.00
2018-04-12T05:07:12.759Z,87.00
2018-04-12T05:09:43.809Z,86.70
2018-04-12T05:12:14.903Z,87.00
2018-04-12T05:14:45.141Z,86.80
2018-04-12T05:17:16.094Z,87.30
2018-04-12T05:19:47.381Z,86.50
2018-04-12T05:22:17.713Z,86.40
2018-04-12T05:24:47.905Z,87.00
2018-04-12T05:27:19.352Z,86.10
2018-04-12T05:29:49.744Z,86.00
2018-04-12T05:32:20.854Z,86.80
2018-04-12T05:34:51.110Z,86.80
2018-04-12T05:37:22.206Z,85.40
2018-04-12T05:39:52.494Z,85.40
2018-04-12T05:42:22.800Z,83.50
2018-04-12T05:44:53.957Z,87.80
2018-04-12T05:47:24.243Z,87.80
2018-04-12T05:49:55.444Z,87.20
2018-04-12T05:52:25.690Z,87.10
2018-04-12T05:54:55.852Z,87.80
2018-04-12T05:57:26.819Z,85.50
2018-04-12T05:59:57.744Z,85.20
2018-04-12T06:02:28.726Z,85.00
2018-04-12T06:04:58.986Z,84.90
2018-04-12T06:07:29.887Z,79.80
2018-04-12T06:10:01.061Z,78.40
2018-04-12T06:12:32.342Z,79.10
2018-04-12T06:15:02.525Z,79.00
2018-04-12T06:17:33.495Z,79.40
2018-04-12T06:20:03.752Z,79.40
2018-04-12T06:22:33.943Z,82.50
2018-04-12T06:25:04.984Z,84.40
2018-04-12T06:27:35.105Z,84.40
2018-04-12T06:30:06.048Z,80.60
2018-04-12T06:32:36.213Z,80.50
2018-04-12T06:35:06.342Z,83.60
2018-04-12T06:37:37.321Z,80.00
2018-04-12T06:40:08.261Z,81.70
2018-04-12T06:42:39.212Z,83.20
2018-04-12T06:45:09.544Z,83.30
2018-04-12T06:47:39.684Z,83.60
2018-04-12T06:50:09.906Z,83.40
2018-04-12T06:52:40.044Z,84.40
2018-04-12T06:55:11.097Z,84.50
2018-04-12T06:57:42.054Z,85.00
2018-04-12T07:00:12.266Z,85.00
2018-04-12T07:02:43.221Z,81.50
2018-04-12T07:05:14.243Z,78.00
2018-04-12T07:07:45.159Z,74.60
2018-04-12T07:10:16.173Z,75.10
2018-04-12T07:12:46.349Z,75.10
2018-04-12T07:15:16.530Z,79.20
2018-04-12T07:17:47.599Z,75.60
2018-04-12T07:20:18.550Z,74.70
2018-04-12T07:22:49.494Z,76.30
2018-04-12T07:25:20.409Z,78.80
2018-04-12T07:27:51.390Z,80.40
2018-04-12T07:30:21.606Z,79.60
2018-04-12T07:32:51.838Z,80.70
2018-04-12T07:35:22.078Z,81.40
2018-04-12T07:37:52.361Z,82.10
2018-04-12T07:40:23.397Z,82.80
2018-04-12T07:42:54.470Z,82.10
2018-04-12T07:45:24.659Z,82.10
2018-04-12T07:47:54.899Z,82.20
2018-04-12T07:50:25.053Z,81.60
2018-04-12T07:52:55.582Z,81.90
2018-04-12T07:55:25.880Z,80.30
2018-04-12T07:57:56.166Z,80.20
2018-04-12T08:00:27.125Z,78.20
2018-04-12T08:02:58.210Z,78.50
2018-04-12T08:05:29.554Z,77.80
2018-04-12T08:07:59.786Z,77.70
2018-04-12T08:10:30.813Z,76.80
2018-04-12T08:13:00.960Z,76.80
2018-04-12T08:15:32.774Z,70.80
2018-04-12T08:18:02.931Z,70.80
2018-04-12T08:20:34.109Z,65.00
2018-04-12T08:23:05.223Z,68.70
2018-04-12T08:25:36.401Z,67.20
2018-04-12T08:28:07.331Z,73.70
2018-04-12T08:30:38.854Z,71.20
2018-04-12T08:33:09.825Z,72.30
2018-04-12T08:35:40.762Z,65.80
2018-04-12T08:38:11.750Z,63.40
2018-04-12T08:40:42.877Z,63.50
2018-04-12T08:43:13.147Z,66.00
2018-04-12T08:45:44.100Z,63.30
2018-04-12T08:48:15.686Z,67.60
2018-04-12T08:50:46.830Z,62.60
2018-04-12T08:53:17.164Z,62.40
2018-04-12T08:55:48.279Z,57.50
2018-04-12T08:58:18.510Z,57.50
2018-04-12T09:00:48.954Z,56.50
2018-04-12T09:03:19.246Z,55.40
2018-04-12T09:05:49.484Z,55.50
2018-04-12T09:08:19.626Z,55.30
2018-04-12T09:10:49.971Z,56.50
2018-04-12T09:13:20.111Z,55.20
2018-04-12T09:15:51.057Z,54.40
2018-04-12T09:18:22.026Z,54.50
2018-04-12T09:20:52.232Z,54.40
2018-04-12T09:23:23.163Z,54.30
2018-04-12T09:25:53.801Z,54.20
2018-04-12T09:28:23.944Z,53.80
2018-04-12T09:30:54.177Z,53.90
2018-04-12T09:33:24.407Z,53.10
2018-04-12T09:35:54.606Z,54.40
2018-04-12T09:38:24.789Z,54.30
2018-04-12T09:40:55.805Z,54.10
2018-04-12T09:43:26.773Z,53.40
2018-04-12T09:45:57.761Z,53.70
2018-04-12T09:48:28.085Z,53.60
2018-04-12T09:50:58.390Z,52.80
2018-04-12T09:53:28.686Z,53.10
2018-04-12T09:55:58.993Z,51.70
2018-04-12T09:58:30.015Z,50.30
2018-04-12T10:01:01.345Z,50.30
2018-04-12T10:03:31.609Z,50.20
2018-04-12T10:06:05.579Z,47.30
2018-04-12T10:08:35.884Z,47.30
2018-04-12T10:11:06.103Z,48.30
2018-04-12T10:13:36.315Z,47.50
2018-04-12T10:16:06.589Z,47.80
2018-04-12T10:18:37.725Z,45.70
2018-04-12T10:21:08.124Z,45.70
2018-04-12T10:23:38.329Z,46.90
2018-04-12T10:26:08.503Z,46.20
2018-04-12T10:28:38.808Z,46.20
2018-04-12T10:31:09.964Z,45.60
2018-04-12T10:33:40.296Z,45.60
2018-04-12T10:36:10.585Z,45.90
2018-04-12T10:38:40.909Z,45.70
2018-04-12T10:41:11.209Z,45.60
2018-04-12T10:43:42.295Z,45.70
2018-04-12T10:46:12.595Z,45.60
2018-04-12T10:48:42.924Z,45.50
2018-04-12T10:51:13.190Z,44.50
2018-04-12T10:53:43.587Z,45.10
2018-04-12T10:56:13.899Z,45.50
2018-04-12T10:58:44.257Z,45.20
2018-04-12T11:01:15.264Z,45.60
2018-04-12T11:03:45.511Z,45.60
2018-04-12T11:06:16.481Z,45.00
2018-04-12T11:08:47.554Z,45.50
2018-04-12T11:11:17.921Z,45.50
2018-04-12T11:13:48.257Z,45.50
2018-04-12T11:16:19.537Z,45.40
2018-04-12T11:18:50.624Z,45.70
2018-04-12T11:21:21.791Z,45.10
2018-04-12T11:23:52.224Z,44.90
2018-04-12T11:26:23.320Z,44.80
2018-04-12T11:28:53.724Z,44.90
2018-04-12T11:31:24.007Z,46.00
2018-04-12T11:33:55.103Z,45.90
2018-04-12T11:36:26.285Z,44.30
2018-04-12T11:38:57.276Z,43.90
2018-04-12T11:41:27.570Z,44.50
2018-04-12T11:43:57.789Z,43.80
2018-04-12T11:46:28.925Z,44.70
2018-04-12T11:49:00.008Z,44.70
2018-04-12T11:51:30.208Z,44.70
2018-04-12T11:54:00.378Z,45.60
2018-04-12T11:56:31.409Z,47.10
2018-04-12T11:59:02.729Z,46.30
2018-04-12T12:01:33.949Z,47.40
2018-04-12T12:04:04.200Z,47.30
2018-04-12T12:06:35.371Z,47.00
2018-04-12T12:09:06.692Z,46.60
2018-04-12T12:11:37.712Z,46.90
2018-04-12T12:14:08.710Z,47.70
2018-04-12T12:16:40.024Z,48.00
2018-04-12T12:19:10.163Z,47.90
2018-04-12T12:21:40.348Z,48.00
2018-04-12T12:24:10.663Z,47.90
2018-04-12T12:26:41.085Z,48.70
2018-04-12T12:29:11.261Z,48.70
2018-04-12T12:31:42.494Z,48.70
2018-04-12T12:34:13.562Z,48.50
2018-04-12T12:36:44.574Z,48.40
2018-04-12T12:39:20.170Z,48.40
2018-04-12T12:41:53.778Z,48.40
2018-04-12T12:44:23.924Z,48.40
2018-04-12T12:46:54.249Z,48.60
2018-04-12T12:49:25.385Z,48.70
2018-04-12T12:51:55.791Z,48.70
2018-04-12T12:54:27.106Z,50.40
2018-04-12T12:56:57.382Z,50.50
2018-04-12T12:59:30.929Z,50.60
2018-04-12T13:02:02.308Z,50.50
2018-04-12T13:04:33.474Z,50.00
2018-04-12T13:25:39.777Z,50.90
2018-04-12T13:28:10.035Z,50.90
2018-04-12T13:30:40.987Z,51.40
2018-04-12T13:33:11.950Z,52.10
2018-04-12T13:35:42.144Z,52.10
2018-04-12T13:38:13.059Z,51.90
2018-04-12T13:40:43.323Z,51.90
2018-04-12T13:43:13.757Z,51.70
2018-04-12T13:45:44.009Z,52.20
2018-04-12T13:48:14.241Z,51.80
2018-04-12T13:50:45.280Z,52.50
2018-04-12T13:53:15.458Z,52.40
2018-04-12T13:55:46.038Z,53.60
2018-04-12T13:58:17.322Z,54.00
2018-04-12T14:00:48.266Z,54.20
2018-04-12T14:03:19.159Z,54.40
2018-04-12T14:05:49.320Z,54.40
2018-04-12T14:08:20.342Z,53.30
2018-04-12T14:10:50.565Z,53.30
2018-04-12T14:13:21.810Z,52.60
2018-04-12T14:15:53.184Z,52.60
2018-04-12T14:18:23.448Z,52.50
2018-04-12T14:20:54.448Z,52.70
2018-04-12T14:23:24.767Z,52.60
2018-04-12T14:25:54.953Z,52.40
2018-04-12T14:28:26.362Z,51.70
2018-04-12T14:30:56.554Z,51.70
2018-04-12T14:33:26.726Z,50.20
2018-04-12T14:35:56.957Z,51.60
2018-04-12T14:38:27.961Z,51.60
2018-04-12T14:40:58.176Z,51.60
2018-04-12T14:43:28.375Z,51.20
2018-04-12T14:45:59.251Z,51.50
2018-04-12T14:48:29.673Z,51.40
2018-04-12T14:51:00.698Z,50.60
2018-04-12T14:53:31.002Z,50.60
2018-04-12T14:56:01.885Z,50.20
2018-04-12T14:58:32.052Z,50.10
2018-04-12T15:01:02.634Z,51.10
2018-04-12T15:03:32.868Z,51.30
2018-04-12T15:06:03.850Z,50.50
2018-04-12T15:08:34.088Z,50.40
2018-04-12T15:11:04.290Z,50.90
2018-04-12T15:13:34.580Z,50.00
2018-04-12T15:16:04.745Z,50.40
2018-04-12T15:18:35.013Z,50.10
2018-04-12T15:21:05.230Z,50.60
2018-04-12T15:23:35.440Z,50.80
2018-04-12T15:26:05.675Z,50.20
2018-04-12T15:28:36.732Z,50.40
2018-04-12T15:31:06.969Z,50.40
2018-04-12T15:33:37.224Z,50.80
2018-04-12T15:36:07.498Z,50.10
2018-04-12T15:38:38.561Z,51.00
2018-04-12T15:41:09.464Z,51.00
2018-04-12T15:43:39.624Z,51.00
2018-04-12T15:46:09.826Z,51.00
2018-04-12T15:48:40.796Z,50.40
2018-04-12T15:51:11.806Z,50.50
2018-04-12T15:53:42.869Z,50.60
2018-04-12T15:56:13.158Z,50.50
2018-04-12T15:58:43.347Z,49.40
2018-04-12T16:01:13.607Z,49.40
2018-04-12T16:03:43.782Z,50.20
2018-04-12T16:06:14.724Z,49.90
2018-04-12T16:08:45.723Z,48.50
2018-04-12T16:11:16.040Z,48.40
2018-04-12T16:13:46.165Z,47.80
2018-04-12T16:16:16.567Z,46.30
2018-04-12T16:18:46.764Z,46.20
2018-04-12T16:21:17.939Z,45.60
2018-04-12T16:23:48.140Z,45.50
2018-04-12T16:26:18.406Z,45.20
2018-04-12T16:28:48.592Z,45.10
2018-04-12T16:31:19.545Z,44.30
2018-04-12T16:33:49.687Z,44.30
2018-04-12T16:36:19.787Z,44.00
2018-04-12T16:38:49.908Z,43.90
2018-04-12T16:41:20.138Z,43.20
2018-04-12T16:43:51.138Z,42.70
2018-04-12T16:46:21.264Z,42.70
2018-04-12T16:48:51.454Z,43.80
2018-04-12T16:51:22.365Z,42.90
2018-04-12T16:53:53.253Z,43.60
2018-04-12T16:56:23.564Z,43.60
2018-04-12T16:58:54.249Z,43.50
2018-04-12T17:01:25.424Z,43.20
2018-04-12T17:03:56.711Z,43.80
2018-04-12T17:06:27.676Z,44.10
2018-04-12T17:08:57.985Z,44.10
2018-04-12T17:11:28.216Z,45.80
2018-04-12T17:13:58.537Z,45.30
2018-04-12T17:16:28.743Z,45.60
2018-04-12T17:18:59.726Z,45.70
2018-04-12T17:21:30.734Z,45.70
2018-04-12T17:24:00.887Z,45.70
2018-04-12T17:26:31.809Z,46.70
2018-04-12T17:29:02.061Z,46.70
2018-04-12T17:31:32.977Z,48.20
2018-04-12T17:34:03.900Z,51.00
2018-04-12T17:36:34.038Z,50.90
2018-04-12T17:39:05.259Z,52.50
2018-04-12T17:41:35.482Z,52.40
2018-04-12T17:44:05.704Z,53.80
2018-04-12T17:46:36.666Z,54.60
2018-04-12T17:49:07.617Z,54.70
2018-04-12T17:51:38.722Z,57.60
2018-04-12T17:54:08.878Z,57.60
2018-04-12T17:56:39.136Z,60.20
2018-04-12T17:59:09.260Z,57.40
2018-04-12T18:01:40.426Z,58.00
2018-04-12T18:04:11.488Z,59.10
2018-04-12T18:06:41.646Z,59.10
2018-04-12T18:09:11.787Z,60.00
2018-04-12T18:11:41.954Z,61.00
2018-04-12T18:14:12.160Z,61.80
2018-04-12T18:16:43.453Z,63.20
2018-04-12T18:19:14.347Z,63.00
2018-04-12T18:21:44.465Z,62.90
2018-04-12T18:24:15.349Z,64.80
2018-04-12T18:26:45.378Z,64.80
2018-04-12T18:29:16.272Z,65.10
2018-04-12T18:31:47.096Z,63.40
2018-04-12T18:34:20.104Z,63.10
2018-04-12T18:36:50.465Z,63.00
2018-04-12T18:39:20.642Z,62.40
2018-04-12T18:41:51.525Z,64.00
2018-04-12T18:44:23.235Z,64.00
2018-04-12T18:46:55.276Z,62.70
2018-04-12T18:49:25.997Z,62.60
2018-04-12T18:51:57.328Z,63.70
2018-04-12T18:54:28.246Z,63.40
2018-04-12T18:56:59.182Z,63.40
2018-04-12T18:59:30.085Z,65.20
2018-04-12T19:02:03.265Z,65.20
2018-04-12T19:04:36.439Z,65.70
2018-04-12T19:07:06.948Z,65.80
2018-04-12T19:09:37.098Z,67.30
2018-04-12T19:12:07.149Z,67.70
2018-04-12T19:14:38.007Z,66.60
2018-04-12T19:17:08.313Z,66.40
2018-04-12T19:19:39.318Z,67.00
2018-04-12T19:22:09.470Z,67.00
2018-04-12T19:24:40.445Z,68.30
2018-04-12T19:27:10.830Z,68.30
2018-04-12T19:29:41.733Z,69.30
2018-04-12T19:32:12.006Z,67.70
2018-04-12T19:34:42.926Z,66.80
2018-04-12T19:37:13.040Z,66.60
2018-04-12T19:39:43.961Z,66.50
2018-04-12T19:42:14.948Z,68.20
2018-04-12T19:44:46.296Z,68.10
2018-04-12T19:47:17.345Z,70.90
2018-04-12T19:49:48.396Z,70.90
2018-04-12T19:52:18.559Z,70.80
2018-04-12T19:54:48.723Z,71.00
2018-04-12T19:57:18.831Z,70.70
2018-04-12T19:59:49.077Z,70.20
2018-04-12T20:02:20.063Z,69.70
2018-04-12T20:04:51.039Z,71.20
2018-04-12T20:07:22.060Z,71.20
2018-04-12T20:09:52.191Z,71.10
2018-04-12T20:12:23.227Z,70.50
2018-04-12T20:14:54.154Z,70.50
2018-04-12T20:17:25.114Z,71.10
2018-04-12T20:19:56.266Z,71.00
2018-04-12T20:22:26.370Z,70.30
2018-04-12T20:24:58.104Z,69.90
2018-04-12T20:27:28.495Z,69.70
2018-04-12T20:29:58.662Z,70.00
2018-04-12T20:32:29.611Z,71.40
2018-04-12T20:35:00.542Z,71.30
2018-04-12T20:37:30.887Z,71.30
2018-04-12T20:40:00.956Z,73.30
2018-04-12T20:42:31.829Z,71.40
2018-04-12T20:45:01.918Z,71.40
2018-04-12T20:47:32.858Z,71.40
2018-04-12T20:50:03.010Z,71.40
2018-04-12T20:52:33.483Z,73.70
2018-04-12T20:55:03.714Z,73.00
2018-04-12T20:57:34.687Z,72.60
2018-04-12T21:00:05.847Z,72.70
2018-04-12T21:02:35.997Z,72.70
2018-04-12T21:05:07.093Z,72.30
2018-04-12T21:07:38.168Z,72.80
2018-04-12T21:10:08.359Z,72.60
2018-04-12T21:12:39.185Z,72.20
2018-04-12T21:15:10.344Z,72.20
2018-04-12T21:17:40.518Z,72.10
2018-04-12T21:20:11.577Z,71.90
2018-04-12T21:22:42.492Z,71.50
2018-04-12T21:25:13.338Z,72.10
2018-04-12T21:27:44.351Z,72.10
2018-04-12T21:30:14.516Z,70.40
2018-04-12T21:32:45.398Z,71.10
2018-04-12T21:35:15.448Z,71.10
2018-04-12T21:37:45.507Z,70.30
2018-04-12T21:40:15.646Z,70.60
2018-04-12T21:42:46.893Z,69.80
2018-04-12T21:45:16.967Z,69.80
2018-04-12T21:47:47.874Z,68.20
2018-04-12T21:50:17.936Z,68.20
2018-04-12T21:52:49.518Z,68.20
2018-04-12T21:55:19.656Z,68.10
2018-04-12T21:57:49.737Z,69.30
2018-04-12T22:00:21.759Z,68.30
2018-04-12T22:02:52.700Z,68.50
2018-04-12T22:05:23.637Z,67.20
2018-04-12T22:07:53.869Z,67.00
2018-04-12T22:10:24.717Z,61.10
2018-04-12T22:12:55.573Z,61.20
2018-04-12T22:15:26.500Z,60.10
2018-04-12T22:17:57.297Z,59.40
2018-04-12T22:20:28.157Z,58.50
2018-04-12T22:22:59.086Z,58.30
2018-04-12T22:25:30.063Z,58.00
2018-04-12T22:28:00.124Z,58.00
2018-04-12T22:30:30.273Z,58.80
2018-04-12T22:33:00.415Z,58.70
2018-04-12T22:35:31.233Z,58.40
2018-04-12T22:38:02.868Z,58.40
2018-04-12T22:40:33.816Z,57.80
2018-04-12T22:43:05.053Z,57.10
2018-04-12T22:45:35.937Z,57.60
2018-04-12T22:48:06.017Z,57.50
2018-04-12T22:50:36.106Z,57.40
2018-04-12T22:53:07.915Z,58.60
2018-04-12T22:55:39.062Z,58.20
2018-04-12T22:58:10.012Z,58.00
2018-04-12T23:00:40.097Z,58.00
2018-04-12T23:03:11.191Z,58.40
2018-04-12T23:05:41.358Z,58.30
2018-04-12T23:08:11.502Z,58.10
2018-04-12T23:10:42.230Z,58.40
2018-04-12T23:13:12.333Z,58.60
2018-04-12T23:15:42.724Z,61.30
2018-04-12T23:18:13.630Z,64.80
2018-04-12T23:20:43.826Z,64.70
2018-04-12T23:23:14.737Z,67.40
2018-04-12T23:25:44.829Z,67.40
2018-04-12T23:28:15.058Z,68.40
2018-04-12T23:30:46.009Z,68.70
2018-04-12T23:33:16.941Z,69.50
2018-04-12T23:35:47.292Z,69.30
2018-04-12T23:38:17.360Z,68.50
2018-04-12T23:40:47.657Z,67.50
2018-04-12T23:43:17.678Z,68.30
2018-04-12T23:45:47.766Z,68.30
2018-04-12T23:48:18.708Z,70.10
2018-04-12T23:50:48.768Z,70.10
2018-04-12T23:53:18.918Z,70.20
2018-04-12T23:55:49.786Z,71.80
2018-04-12T23:58:20.766Z,70.30
